sensor_id;sensor_type;location;lat;lon;timestamp;pressure;altitude;pressure_sealevel;temperature;humidity
7333;BME280;3707;43.618;25.342;2023-03-01T00:01:07;101018.53;;;5.80;100.00
7333;BME280;3707;43.618;25.342;2023-03-01T00:03:35;101019.69;;;5.69;100.00
7333;BME280;3707;43.618;25.342;2023-03-01T00:06:04;101015.22;;;5.83;100.00
7333;BME280;3707;43.618;25.342;2023-03-01T00:08:31;100995.72;;;5.53;100.00
7333;BME280;3707;43.618;25.342;2023-03-01T00:11:03;101015.44;;;5.70;100.00
7333;BME280;3707;43.618;25.342;2023-03-01T00:13:30;100947.16;;;5.25;100.00
7333;BME280;3707;43.618;25.342;2023-03-01T00:15:57;100982.91;;;5.54;100.00
7333;BME280;3707;43.618;25.342;2023-03-01T00:18:24;100996.00;;;5.59;100.00
7333;BME280;3707;43.618;25.342;2023-03-01T00:20:51;101003.66;;;5.75;100.00
7333;BME280;3707;43.618;25.342;2023-03-01T00:23:21;100997.34;;;5.68;100.00
7333;BME280;3707;43.618;25.342;2023-03-01T00:25:47;100973.22;;;5.48;100.00
7333;BME280;3707;43.618;25.342;2023-03-01T00:28:14;100954.34;;;5.48;100.00
7333;BME280;3707;43.618;25.342;2023-03-01T00:30:42;100982.91;;;5.54;100.00
7333;BME280;3707;43.618;25.342;2023-03-01T00:33:09;100994.09;;;5.72;100.00
7333;BME280;3707;43.618;25.342;2023-03-01T00:35:36;100987.94;;;5.69;100.00
7333;BME280;3707;43.618;25.342;2023-03-01T00:38:03;100973.66;;;5.58;100.00
7333;BME280;3707;43.618;25.342;2023-03-01T00:40:33;100970.16;;;5.56;100.00
7333;BME280;3707;43.618;25.342;2023-03-01T00:43:00;100980.22;;;5.69;100.00
7333;BME280;3707;43.618;25.342;2023-03-01T00:45:27;100979.28;;;5.67;100.00
7333;BME280;3707;43.618;25.342;2023-03-01T00:47:54;100973.81;;;5.61;100.00
7333;BME280;3707;43.618;25.342;2023-03-01T00:50:21;100973.66;;;5.58;100.00
7333;BME280;3707;43.618;25.342;2023-03-01T00:52:52;100950.78;;;5.64;100.00
7333;BME280;3707;43.618;25.342;2023-03-01T00:55:19;100966.41;;;5.67;100.00
7333;BME280;3707;43.618;25.342;2023-03-01T00:57:47;100960.91;;;5.77;100.00
7333;BME280;3707;43.618;25.342;2023-03-01T01:00:14;100958.97;;;5.73;100.00
7333;BME280;3707;43.618;25.342;2023-03-01T01:02:41;100957.44;;;5.59;100.00
7333;BME280;3707;43.618;25.342;2023-03-01T01:05:09;100954.38;;;5.49;100.00
7333;BME280;3707;43.618;25.342;2023-03-01T01:07:36;100944.94;;;5.48;100.00
7333;BME280;3707;43.618;25.342;2023-03-01T01:10:03;100951.16;;;5.54;100.00
7333;BME280;3707;43.618;25.342;2023-03-01T01:12:30;100937.22;;;5.48;100.00
7333;BME280;3707;43.618;25.342;2023-03-01T01:14:58;100947.06;;;5.57;100.00
7333;BME280;3707;43.618;25.342;2023-03-01T01:17:25;100938.69;;;5.61;100.00
7333;BME280;3707;43.618;25.342;2023-03-01T01:19:52;100941.63;;;5.51;100.00
7333;BME280;3707;43.618;25.342;2023-03-01T01:22:19;100926.59;;;5.42;100.00
7333;BME280;3707;43.618;25.342;2023-03-01T01:24:45;100935.88;;;5.57;100.00
7333;BME280;3707;43.618;25.342;2023-03-01T01:27:12;100933.16;;;5.54;100.00
7333;BME280;3707;43.618;25.342;2023-03-01T01:29:39;100930.53;;;5.52;100.00
7333;BME280;3707;43.618;25.342;2023-03-01T01:32:08;100926.56;;;5.59;100.00
7333;BME280;3707;43.618;25.342;2023-03-01T01:34:35;100913.84;;;5.44;100.00
7333;BME280;3707;43.618;25.342;2023-03-01T01:37:02;100924.91;;;5.43;100.00
7333;BME280;3707;43.618;25.342;2023-03-01T01:39:29;100826.09;;;4.85;100.00
7333;BME280;3707;43.618;25.342;2023-03-01T01:41:56;100918.03;;;5.42;100.00
7333;BME280;3707;43.618;25.342;2023-03-01T01:44:25;100926.59;;;5.42;100.00
7333;BME280;3707;43.618;25.342;2023-03-01T01:46:54;100912.06;;;5.43;100.00
7333;BME280;3707;43.618;25.342;2023-03-01T01:49:28;100914.72;;;5.44;100.00
7333;BME280;3707;43.618;25.342;2023-03-01T01:52:02;100915.38;;;5.40;100.00
7333;BME280;3707;43.618;25.342;2023-03-01T01:54:37;100907.44;;;5.36;100.00
7333;BME280;3707;43.618;25.342;2023-03-01T01:57:08;100911.91;;;5.40;100.00
7333;BME280;3707;43.618;25.342;2023-03-01T01:59:38;100900.38;;;5.32;100.00
7333;BME280;3707;43.618;25.342;2023-03-01T02:02:05;100884.28;;;5.18;100.00
7333;BME280;3707;43.618;25.342;2023-03-01T02:04:34;100911.34;;;5.28;100.00
7333;BME280;3707;43.618;25.342;2023-03-01T02:07:03;100914.13;;;5.32;100.00
7333;BME280;3707;43.618;25.342;2023-03-01T02:09:33;100889.06;;;5.28;100.00
7333;BME280;3707;43.618;25.342;2023-03-01T02:12:01;100922.06;;;5.37;100.00
7333;BME280;3707;43.618;25.342;2023-03-01T02:14:28;100912.91;;;5.42;100.00
7333;BME280;3707;43.618;25.342;2023-03-01T02:16:55;100890.31;;;5.19;100.00
7333;BME280;3707;43.618;25.342;2023-03-01T02:19:32;100921.91;;;5.34;100.00
7333;BME280;3707;43.618;25.342;2023-03-01T02:22:15;100911.59;;;5.16;100.00
7333;BME280;3707;43.618;25.342;2023-03-01T02:24:51;100933.09;;;5.34;100.00
7333;BME280;3707;43.618;25.342;2023-03-01T02:27:27;100923.53;;;5.49;100.00
7333;BME280;3707;43.618;25.342;2023-03-01T02:29:59;100914.44;;;5.38;100.00
7333;BME280;3707;43.618;25.342;2023-03-01T02:32:26;100935.16;;;5.41;100.00
7333;BME280;3707;43.618;25.342;2023-03-01T02:34:52;100921.66;;;5.45;100.00
7333;BME280;3707;43.618;25.342;2023-03-01T02:37:20;100930.59;;;5.54;100.00
7333;BME280;3707;43.618;25.342;2023-03-01T02:39:53;100929.28;;;5.62;100.00
7333;BME280;3707;43.618;25.342;2023-03-01T02:42:30;100934.50;;;5.63;100.00
7333;BME280;3707;43.618;25.342;2023-03-01T02:44:59;100941.03;;;5.57;100.00
7333;BME280;3707;43.618;25.342;2023-03-01T02:47:26;100942.28;;;5.47;100.00
7333;BME280;3707;43.618;25.342;2023-03-01T02:49:53;100944.47;;;5.39;100.00
7333;BME280;3707;43.618;25.342;2023-03-01T02:52:30;100932.44;;;5.56;100.00
7333;BME280;3707;43.618;25.342;2023-03-01T02:55:02;100937.22;;;5.48;100.00
7333;BME280;3707;43.618;25.342;2023-03-01T02:57:31;100934.50;;;5.45;100.00
7333;BME280;3707;43.618;25.342;2023-03-01T03:00:03;100937.06;;;5.45;100.00
7333;BME280;3707;43.618;25.342;2023-03-01T03:02:34;100917.19;;;5.25;100.00
7333;BME280;3707;43.618;25.342;2023-03-01T03:05:06;100934.56;;;5.47;100.00
7333;BME280;3707;43.618;25.342;2023-03-01T03:07:34;100872.41;;;5.20;100.00
7333;BME280;3707;43.618;25.342;2023-03-01T03:10:01;100916.31;;;5.42;100.00
7333;BME280;3707;43.618;25.342;2023-03-01T03:12:28;100931.84;;;5.62;100.00
7333;BME280;3707;43.618;25.342;2023-03-01T03:14:54;100930.91;;;5.60;100.00
7333;BME280;3707;43.618;25.342;2023-03-01T03:17:23;100927.88;;;5.68;100.00
7333;BME280;3707;43.618;25.342;2023-03-01T03:19:50;100931.75;;;5.60;100.00
7333;BME280;3707;43.618;25.342;2023-03-01T03:22:16;100932.34;;;5.55;100.00
7333;BME280;3707;43.618;25.342;2023-03-01T03:24:43;100924.56;;;5.53;100.00
7333;BME280;3707;43.618;25.342;2023-03-01T03:27:10;100933.47;;;5.60;100.00
7333;BME280;3707;43.618;25.342;2023-03-01T03:29:37;100934.00;;;5.53;100.00
7333;BME280;3707;43.618;25.342;2023-03-01T03:32:03;100931.09;;;5.46;100.00
7333;BME280;3707;43.618;25.342;2023-03-01T03:34:32;100914.72;;;5.44;100.00
7333;BME280;3707;43.618;25.342;2023-03-01T03:36:58;100934.66;;;5.48;100.00
7333;BME280;3707;43.618;25.342;2023-03-01T03:39:26;100903.53;;;5.26;100.00
7333;BME280;3707;43.618;25.342;2023-03-01T03:41:53;100907.91;;;5.45;100.00
7333;BME280;3707;43.618;25.342;2023-03-01T03:44:21;100927.66;;;5.64;100.00
7333;BME280;3707;43.618;25.342;2023-03-01T03:46:48;100931.19;;;5.66;100.00
7333;BME280;3707;43.618;25.342;2023-03-01T03:49:15;100935.72;;;5.54;100.00
7333;BME280;3707;43.618;25.342;2023-03-01T03:51:45;100910.84;;;5.53;100.00
7333;BME280;3707;43.618;25.342;2023-03-01T03:54:11;100910.47;;;5.45;100.00
7333;BME280;3707;43.618;25.342;2023-03-01T03:56:38;100896.94;;;5.67;100.00
7333;BME280;3707;43.618;25.342;2023-03-01T03:59:05;100905.81;;;6.09;100.00
7333;BME280;3707;43.618;25.342;2023-03-01T04:01:32;100916.63;;;5.66;100.00
7333;BME280;3707;43.618;25.342;2023-03-01T04:03:59;100915.38;;;5.58;100.00
7333;BME280;3707;43.618;25.342;2023-03-01T04:06:30;100921.66;;;5.45;100.00
7333;BME280;3707;43.618;25.342;2023-03-01T04:08:58;100908.03;;;5.66;100.00
7333;BME280;3707;43.618;25.342;2023-03-01T04:11:27;100902.94;;;5.49;100.00
7333;BME280;3707;43.618;25.342;2023-03-01T04:13:57;100911.03;;;5.39;100.00
7333;BME280;3707;43.618;25.342;2023-03-01T04:16:24;100824.97;;;4.80;100.00
7333;BME280;3707;43.618;25.342;2023-03-01T04:18:51;100921.19;;;5.36;100.00
7333;BME280;3707;43.618;25.342;2023-03-01T04:21:19;100900.72;;;5.22;100.00
7333;BME280;3707;43.618;25.342;2023-03-01T04:23:46;100898.44;;;5.10;100.00
7333;BME280;3707;43.618;25.342;2023-03-01T04:26:14;100917.19;;;5.25;100.00
7333;BME280;3707;43.618;25.342;2023-03-01T04:28:41;100892.50;;;5.11;100.00
7333;BME280;3707;43.618;25.342;2023-03-01T04:31:12;100879.72;;;5.13;100.00
7333;BME280;3707;43.618;25.342;2023-03-01T04:33:42;100895.00;;;5.10;100.00
7333;BME280;3707;43.618;25.342;2023-03-01T04:36:10;100920.09;;;5.31;100.00
7333;BME280;3707;43.618;25.342;2023-03-01T04:38:38;100924.09;;;5.26;100.00
7333;BME280;3707;43.618;25.342;2023-03-01T04:41:06;100929.53;;;5.32;100.00
7333;BME280;3707;43.618;25.342;2023-03-01T04:43:34;100924.25;;;5.29;100.00
7333;BME280;3707;43.618;25.342;2023-03-01T04:46:02;100921.44;;;5.25;100.00
7333;BME280;3707;43.618;25.342;2023-03-01T04:48:29;100930.81;;;5.40;100.00
7333;BME280;3707;43.618;25.342;2023-03-01T04:50:58;100933.78;;;5.32;100.00
7333;BME280;3707;43.618;25.342;2023-03-01T04:53:24;100893.78;;;5.03;100.00
7333;BME280;3707;43.618;25.342;2023-03-01T04:55:51;100929.13;;;5.41;100.00
7333;BME280;3707;43.618;25.342;2023-03-01T04:58:18;100856.97;;;5.03;100.00
7333;BME280;3707;43.618;25.342;2023-03-01T05:00:46;100928.59;;;5.83;100.00
7333;BME280;3707;43.618;25.342;2023-03-01T05:03:13;100917.00;;;5.74;100.00
7333;BME280;3707;43.618;25.342;2023-03-01T05:05:44;100900.19;;;5.63;100.00
7333;BME280;3707;43.618;25.342;2023-03-01T05:08:12;100908.63;;;5.78;100.00
7333;BME280;3707;43.618;25.342;2023-03-01T05:10:44;100868.19;;;5.22;100.00
7333;BME280;3707;43.618;25.342;2023-03-01T05:13:12;100931.72;;;5.59;100.00
7333;BME280;3707;43.618;25.342;2023-03-01T05:15:40;100890.19;;;5.33;100.00
7333;BME280;3707;43.618;25.342;2023-03-01T05:18:09;100937.22;;;5.48;100.00
7333;BME280;3707;43.618;25.342;2023-03-01T05:20:37;100936.25;;;5.46;100.00
7333;BME280;3707;43.618;25.342;2023-03-01T05:23:04;100927.34;;;5.40;100.00
7333;BME280;3707;43.618;25.342;2023-03-01T05:25:32;100942.28;;;5.65;100.00
7333;BME280;3707;43.618;25.342;2023-03-01T05:28:00;100913.69;;;5.59;100.00
7333;BME280;3707;43.618;25.342;2023-03-01T05:30:30;100931.72;;;5.94;100.00
7333;BME280;3707;43.618;25.342;2023-03-01T05:32:58;100934.66;;;5.84;100.00
7333;BME280;3707;43.618;25.342;2023-03-01T05:35:27;100939.16;;;5.88;100.00
7333;BME280;3707;43.618;25.342;2023-03-01T05:37:54;100924.47;;;6.80;100.00
7333;BME280;3707;43.618;25.342;2023-03-01T05:40:23;100933.22;;;6.26;100.00
7333;BME280;3707;43.618;25.342;2023-03-01T05:42:52;100931.34;;;5.86;100.00
7333;BME280;3707;43.618;25.342;2023-03-01T05:45:19;100941.75;;;5.72;100.00
7333;BME280;3707;43.618;25.342;2023-03-01T05:47:47;100942.78;;;5.58;100.00
7333;BME280;3707;43.618;25.342;2023-03-01T05:50:16;100944.47;;;5.57;100.00
7333;BME280;3707;43.618;25.342;2023-03-01T05:52:47;100933.66;;;5.46;100.00
7333;BME280;3707;43.618;25.342;2023-03-01T05:55:15;100947.91;;;5.40;100.00
7333;BME280;3707;43.618;25.342;2023-03-01T05:57:42;100890.28;;;5.01;100.00
7333;BME280;3707;43.618;25.342;2023-03-01T06:00:10;100943.00;;;5.44;100.00
7333;BME280;3707;43.618;25.342;2023-03-01T06:02:37;100945.47;;;5.25;100.00
7333;BME280;3707;43.618;25.342;2023-03-01T06:05:05;100939.97;;;5.35;100.00
7333;BME280;3707;43.618;25.342;2023-03-01T06:07:32;100913.16;;;5.30;100.00
7333;BME280;3707;43.618;25.342;2023-03-01T06:10:00;100932.06;;;5.48;100.00
7333;BME280;3707;43.618;25.342;2023-03-01T06:12:30;100913.59;;;5.39;100.00
7333;BME280;3707;43.618;25.342;2023-03-01T06:14:57;100903.13;;;5.35;100.00
7333;BME280;3707;43.618;25.342;2023-03-01T06:17:24;100925.03;;;5.62;100.00
7333;BME280;3707;43.618;25.342;2023-03-01T06:19:50;100931.25;;;5.49;100.00
7333;BME280;3707;43.618;25.342;2023-03-01T06:22:17;100931.84;;;5.44;100.00
7333;BME280;3707;43.618;25.342;2023-03-01T06:24:44;100931.06;;;5.63;100.00
7333;BME280;3707;43.618;25.342;2023-03-01T06:27:12;100914.25;;;5.53;100.00
7333;BME280;3707;43.618;25.342;2023-03-01T06:29:39;100940.59;;;5.47;100.00
7333;BME280;3707;43.618;25.342;2023-03-01T06:32:06;100925.66;;;5.40;100.00
7333;BME280;3707;43.618;25.342;2023-03-01T06:34:33;100931.56;;;5.56;100.00
7333;BME280;3707;43.618;25.342;2023-03-01T06:37:00;100943.81;;;5.61;100.00
7333;BME280;3707;43.618;25.342;2023-03-01T06:39:28;100924.41;;;5.32;100.00
7333;BME280;3707;43.618;25.342;2023-03-01T06:41:54;100947.19;;;5.42;100.00
7333;BME280;3707;43.618;25.342;2023-03-01T06:44:23;100952.66;;;5.48;100.00
7333;BME280;3707;43.618;25.342;2023-03-01T06:46:50;100921.78;;;5.48;100.00
7333;BME280;3707;43.618;25.342;2023-03-01T06:49:16;100949.56;;;5.56;100.00
7333;BME280;3707;43.618;25.342;2023-03-01T06:51:43;100950.97;;;5.67;100.00
7333;BME280;3707;43.618;25.342;2023-03-01T06:54:10;100955.22;;;5.48;100.00
7333;BME280;3707;43.618;25.342;2023-03-01T06:56:37;100858.28;;;5.12;100.00
7333;BME280;3707;43.618;25.342;2023-03-01T06:59:04;100935.34;;;5.46;100.00
7333;BME280;3707;43.618;25.342;2023-03-01T07:01:32;100960.44;;;5.68;100.00
7333;BME280;3707;43.618;25.342;2023-03-01T07:03:59;100947.78;;;5.55;100.00
7333;BME280;3707;43.618;25.342;2023-03-01T07:06:26;100948.00;;;5.41;100.00
7333;BME280;3707;43.618;25.342;2023-03-01T07:08:53;100935.16;;;5.41;100.00
7333;BME280;3707;43.618;25.342;2023-03-01T07:11:19;100967.06;;;5.63;100.00
7333;BME280;3707;43.618;25.342;2023-03-01T07:13:46;100966.75;;;5.57;100.00
7333;BME280;3707;43.618;25.342;2023-03-01T07:16:13;100966.91;;;5.60;100.00
7333;BME280;3707;43.618;25.342;2023-03-01T07:18:42;100964.53;;;5.46;100.00
7333;BME280;3707;43.618;25.342;2023-03-01T07:21:09;100954.38;;;5.49;100.00
7333;BME280;3707;43.618;25.342;2023-03-01T07:23:38;100948.44;;;5.50;100.00
7333;BME280;3707;43.618;25.342;2023-03-01T07:26:05;100953.38;;;5.64;100.00
7333;BME280;3707;43.618;25.342;2023-03-01T07:28:32;100942.38;;;5.48;100.00
7333;BME280;3707;43.618;25.342;2023-03-01T07:31:02;100955.44;;;5.71;100.00
7333;BME280;3707;43.618;25.342;2023-03-01T07:33:29;100958.22;;;5.58;100.00
7333;BME280;3707;43.618;25.342;2023-03-01T07:35:58;100954.06;;;5.77;100.00
7333;BME280;3707;43.618;25.342;2023-03-01T07:38:25;100953.03;;;5.74;100.00
7333;BME280;3707;43.618;25.342;2023-03-01T07:40:52;100959.63;;;5.69;100.00
7333;BME280;3707;43.618;25.342;2023-03-01T07:43:19;100928.38;;;5.43;100.00
7333;BME280;3707;43.618;25.342;2023-03-01T07:45:46;100949.84;;;5.62;100.00
7333;BME280;3707;43.618;25.342;2023-03-01T07:48:13;100922.47;;;5.28;100.00
7333;BME280;3707;43.618;25.342;2023-03-01T07:50:40;100944.56;;;5.59;100.00
7333;BME280;3707;43.618;25.342;2023-03-01T07:53:08;100940.72;;;5.50;100.00
7333;BME280;3707;43.618;25.342;2023-03-01T07:55:35;100953.09;;;5.58;100.00
7333;BME280;3707;43.618;25.342;2023-03-01T07:58:02;100945.44;;;5.59;100.00
7333;BME280;3707;43.618;25.342;2023-03-01T08:00:28;100940.72;;;5.50;100.00
7333;BME280;3707;43.618;25.342;2023-03-01T08:02:58;100929.28;;;5.62;100.00
7333;BME280;3707;43.618;25.342;2023-03-01T08:05:25;100942.22;;;5.63;100.00
7333;BME280;3707;43.618;25.342;2023-03-01T08:07:52;100950.28;;;5.71;100.00
7333;BME280;3707;43.618;25.342;2023-03-01T08:10:20;100943.13;;;5.81;100.00
7333;BME280;3707;43.618;25.342;2023-03-01T08:12:47;100938.41;;;5.90;100.00
7333;BME280;3707;43.618;25.342;2023-03-01T08:15:14;100926.66;;;5.78;100.00
7333;BME280;3707;43.618;25.342;2023-03-01T08:17:41;100935.16;;;5.77;100.00
7333;BME280;3707;43.618;25.342;2023-03-01T08:20:09;100921.19;;;5.72;100.00
7333;BME280;3707;43.618;25.342;2023-03-01T08:22:37;100935.69;;;5.70;100.00
7333;BME280;3707;43.618;25.342;2023-03-01T08:25:05;100928.00;;;5.71;100.00
7333;BME280;3707;43.618;25.342;2023-03-01T08:27:33;100945.81;;;5.84;100.00
7333;BME280;3707;43.618;25.342;2023-03-01T08:30:00;100946.78;;;5.69;100.00
7333;BME280;3707;43.618;25.342;2023-03-01T08:32:26;100947.06;;;5.75;100.00
7333;BME280;3707;43.618;25.342;2023-03-01T08:34:53;100946.16;;;5.74;100.00
7333;BME280;3707;43.618;25.342;2023-03-01T08:37:20;100946.16;;;5.74;100.00
7333;BME280;3707;43.618;25.342;2023-03-01T08:39:47;100920.38;;;5.73;100.00
7333;BME280;3707;43.618;25.342;2023-03-01T08:42:13;100924.72;;;5.56;100.00
7333;BME280;3707;43.618;25.342;2023-03-01T08:44:42;100920.94;;;5.67;100.00
7333;BME280;3707;43.618;25.342;2023-03-01T08:47:08;100941.06;;;5.92;100.00
7333;BME280;3707;43.618;25.342;2023-03-01T08:49:35;100929.88;;;6.09;100.00
7333;BME280;3707;43.618;25.342;2023-03-01T08:52:02;100928.91;;;6.07;100.00
7333;BME280;3707;43.618;25.342;2023-03-01T08:54:29;100911.41;;;6.00;100.00
7333;BME280;3707;43.618;25.342;2023-03-01T08:56:56;100907.00;;;5.97;100.00
7333;BME280;3707;43.618;25.342;2023-03-01T08:59:25;100926.72;;;5.97;100.00
7333;BME280;3707;43.618;25.342;2023-03-01T09:01:53;100936.97;;;5.95;100.00
7333;BME280;3707;43.618;25.342;2023-03-01T09:04:19;100916.88;;;6.06;100.00
7333;BME280;3707;43.618;25.342;2023-03-01T09:06:47;100921.31;;;6.10;100.00
7333;BME280;3707;43.618;25.342;2023-03-01T09:09:15;100924.72;;;6.09;100.00
7333;BME280;3707;43.618;25.342;2023-03-01T09:11:42;100929.19;;;6.13;100.00
7333;BME280;3707;43.618;25.342;2023-03-01T09:14:11;100838.13;;;5.57;100.00
7333;BME280;3707;43.618;25.342;2023-03-01T09:16:38;100927.97;;;6.05;100.00
7333;BME280;3707;43.618;25.342;2023-03-01T09:19:06;100927.16;;;6.25;100.00
7333;BME280;3707;43.618;25.342;2023-03-01T09:21:33;100925.78;;;6.14;100.00
7333;BME280;3707;43.618;25.342;2023-03-01T09:24:00;100915.50;;;6.14;100.00
7333;BME280;3707;43.618;25.342;2023-03-01T09:26:27;100932.31;;;6.25;100.00
7333;BME280;3707;43.618;25.342;2023-03-01T09:28:55;100923.66;;;6.23;100.00
7333;BME280;3707;43.618;25.342;2023-03-01T09:31:23;100939.59;;;6.34;100.00
7333;BME280;3707;43.618;25.342;2023-03-01T09:33:52;100933.13;;;6.24;100.00
7333;BME280;3707;43.618;25.342;2023-03-01T09:36:21;100935.72;;;6.43;100.00
7333;BME280;3707;43.618;25.342;2023-03-01T09:38:49;100938.94;;;6.38;100.00
7333;BME280;3707;43.618;25.342;2023-03-01T09:44:23;100935.47;;;6.57;100.00
7333;BME280;3707;43.618;25.342;2023-03-01T09:46:53;100924.06;;;6.32;100.00
7333;BME280;3707;43.618;25.342;2023-03-01T09:49:24;100940.06;;;6.44;100.00
7333;BME280;3707;43.618;25.342;2023-03-01T09:51:59;100917.78;;;6.45;100.00
7333;BME280;3707;43.618;25.342;2023-03-01T09:54:27;100914.88;;;6.37;100.00
7333;BME280;3707;43.618;25.342;2023-03-01T09:57:01;100946.53;;;6.54;100.00
7333;BME280;3707;43.618;25.342;2023-03-01T09:59:41;100936.00;;;6.69;100.00
7333;BME280;3707;43.618;25.342;2023-03-01T10:02:23;100914.25;;;6.62;100.00
7333;BME280;3707;43.618;25.342;2023-03-01T10:04:52;100940.91;;;6.63;100.00
7333;BME280;3707;43.618;25.342;2023-03-01T10:07:29;100902.47;;;6.48;100.00
7333;BME280;3707;43.618;25.342;2023-03-01T10:09:59;100922.03;;;6.64;100.00
7333;BME280;3707;43.618;25.342;2023-03-01T10:12:34;100935.16;;;6.89;100.00
7333;BME280;3707;43.618;25.342;2023-03-01T10:15:07;100925.16;;;6.95;100.00
7333;BME280;3707;43.618;25.342;2023-03-01T10:17:39;100937.44;;;6.62;100.00
7333;BME280;3707;43.618;25.342;2023-03-01T10:20:16;100940.88;;;6.82;100.00
7333;BME280;3707;43.618;25.342;2023-03-01T10:22:45;100909.81;;;6.79;100.00
7333;BME280;3707;43.618;25.342;2023-03-01T10:25:18;100918.44;;;7.19;100.00
7333;BME280;3707;43.618;25.342;2023-03-01T10:27:52;100920.59;;;6.89;100.00
7333;BME280;3707;43.618;25.342;2023-03-01T10:30:20;100922.25;;;6.87;100.00
7333;BME280;3707;43.618;25.342;2023-03-01T10:32:49;100922.97;;;6.85;100.00
7333;BME280;3707;43.618;25.342;2023-03-01T10:35:19;100921.72;;;6.96;100.00
7333;BME280;3707;43.618;25.342;2023-03-01T10:38:02;100920.00;;;7.16;100.00
7333;BME280;3707;43.618;25.342;2023-03-01T10:40:30;100926.75;;;6.93;100.00
7333;BME280;3707;43.618;25.342;2023-03-01T10:42:59;100914.16;;;6.80;100.00
7333;BME280;3707;43.618;25.342;2023-03-01T10:45:32;100910.22;;;6.88;100.00
7333;BME280;3707;43.618;25.342;2023-03-01T10:48:13;100881.94;;;6.89;100.00
7333;BME280;3707;43.618;25.342;2023-03-01T10:50:41;100906.41;;;6.99;100.00
7333;BME280;3707;43.618;25.342;2023-03-01T10:53:21;100909.16;;;7.04;100.00
7333;BME280;3707;43.618;25.342;2023-03-01T10:55:57;100903.13;;;7.03;100.00
7333;BME280;3707;43.618;25.342;2023-03-01T10:58:25;100879.56;;;6.75;100.00
7333;BME280;3707;43.618;25.342;2023-03-01T11:00:54;100889.88;;;6.94;100.00
7333;BME280;3707;43.618;25.342;2023-03-01T11:03:22;100862.19;;;6.90;100.00
7333;BME280;3707;43.618;25.342;2023-03-01T11:06:03;100876.75;;;7.09;100.00
7333;BME280;3707;43.618;25.342;2023-03-01T11:08:34;100876.97;;;7.35;100.00
7333;BME280;3707;43.618;25.342;2023-03-01T11:11:13;100845.28;;;7.17;100.00
7333;BME280;3707;43.618;25.342;2023-03-01T11:13:50;100885.34;;;7.09;100.00
7333;BME280;3707;43.618;25.342;2023-03-01T11:16:25;100841.69;;;6.93;100.00
7333;BME280;3707;43.618;25.342;2023-03-01T11:19:03;100865.41;;;7.26;100.00
7333;BME280;3707;43.618;25.342;2023-03-01T11:21:32;100867.16;;;7.47;100.00
7333;BME280;3707;43.618;25.342;2023-03-01T11:24:01;100839.13;;;7.34;100.00
7333;BME280;3707;43.618;25.342;2023-03-01T11:26:31;100836.59;;;7.15;100.00
7333;BME280;3707;43.618;25.342;2023-03-01T11:29:03;100859.34;;;7.46;100.00
7333;BME280;3707;43.618;25.342;2023-03-01T11:31:32;100828.25;;;7.43;100.00
7333;BME280;3707;43.618;25.342;2023-03-01T11:34:02;100844.28;;;7.34;100.00
7333;BME280;3707;43.618;25.342;2023-03-01T11:36:35;100813.97;;;7.08;100.00
7333;BME280;3707;43.618;25.342;2023-03-01T11:39:25;100842.75;;;7.39;100.00
7333;BME280;3707;43.618;25.342;2023-03-01T11:42:05;100829.66;;;7.35;100.00
7333;BME280;3707;43.618;25.342;2023-03-01T11:44:37;100840.84;;;7.56;100.00
7333;BME280;3707;43.618;25.342;2023-03-01T11:47:15;100844.41;;;7.37;100.00
7333;BME280;3707;43.618;25.342;2023-03-01T11:50:15;100835.97;;;7.21;100.00
7333;BME280;3707;43.618;25.342;2023-03-01T11:52:50;100834.16;;;7.18;100.00
7333;BME280;3707;43.618;25.342;2023-03-01T11:55:42;100835.22;;;7.23;100.00
7333;BME280;3707;43.618;25.342;2023-03-01T11:58:40;100821.94;;;7.57;100.00
7333;BME280;3707;43.618;25.342;2023-03-01T12:01:24;100832.38;;;7.60;100.00
7333;BME280;3707;43.618;25.342;2023-03-01T12:06:57;100758.34;;;7.15;100.00
7333;BME280;3707;43.618;25.342;2023-03-01T12:12:45;100830.56;;;7.58;100.00
7333;BME280;3707;43.618;25.342;2023-03-01T12:15:39;100817.91;;;7.41;100.00
7333;BME280;3707;43.618;25.342;2023-03-01T12:18:25;100748.69;;;6.88;100.00
7333;BME280;3707;43.618;25.342;2023-03-01T12:21:05;100828.16;;;7.40;100.00
7333;BME280;3707;43.618;25.342;2023-03-01T12:24:06;100752.75;;;7.03;100.00
7333;BME280;3707;43.618;25.342;2023-03-01T12:26:35;100824.81;;;7.65;100.00
7333;BME280;3707;43.618;25.342;2023-03-01T12:29:18;100814.16;;;7.56;100.00
7333;BME280;3707;43.618;25.342;2023-03-01T12:32:03;100817.47;;;7.31;100.00
7333;BME280;3707;43.618;25.342;2023-03-01T12:34:46;100819.06;;;7.49;100.00
7333;BME280;3707;43.618;25.342;2023-03-01T12:37:28;100816.00;;;7.37;100.00
7333;BME280;3707;43.618;25.342;2023-03-01T12:40:16;100812.72;;;7.64;100.00
7333;BME280;3707;43.618;25.342;2023-03-01T12:42:56;100817.44;;;7.74;100.00
7333;BME280;3707;43.618;25.342;2023-03-01T12:45:50;100815.25;;;7.62;100.00
7333;BME280;3707;43.618;25.342;2023-03-01T12:48:31;100819.72;;;7.44;100.00
7333;BME280;3707;43.618;25.342;2023-03-01T12:51:03;100819.84;;;7.69;100.00
7333;BME280;3707;43.618;25.342;2023-03-01T12:53:32;100826.59;;;7.66;100.00
7333;BME280;3707;43.618;25.342;2023-03-01T12:56:03;100789.03;;;7.29;100.00
7333;BME280;3707;43.618;25.342;2023-03-01T12:58:34;100820.44;;;7.62;100.00
7333;BME280;3707;43.618;25.342;2023-03-01T13:01:16;100813.47;;;7.60;100.00
7333;BME280;3707;43.618;25.342;2023-03-01T13:04:01;100812.03;;;7.68;100.00
7333;BME280;3707;43.618;25.342;2023-03-01T13:06:37;100818.25;;;7.73;100.00
7333;BME280;3707;43.618;25.342;2023-03-01T13:09:15;100808.25;;;7.82;100.00
7333;BME280;3707;43.618;25.342;2023-03-01T13:11:43;100811.44;;;7.75;100.00
7333;BME280;3707;43.618;25.342;2023-03-01T13:14:35;100813.59;;;7.86;100.00
7333;BME280;3707;43.618;25.342;2023-03-01T13:17:04;100812.94;;;7.92;100.00
7333;BME280;3707;43.618;25.342;2023-03-01T13:19:56;100792.63;;;7.55;100.00
7333;BME280;3707;43.618;25.342;2023-03-01T13:22:29;100805.47;;;7.54;100.00
7333;BME280;3707;43.618;25.342;2023-03-01T13:25:18;100805.81;;;7.63;100.00